sensor_id;sensor_type;location;lat;lon;timestamp;pressure;altitude;pressure_sealevel;temperature;humidity
48204;BME280;33994;50.998;5.864;2022-08-19T00:00:10;100829.34;;;19.39;83.44
48204;BME280;33994;50.998;5.864;2022-08-19T00:02:58;100827.16;;;19.30;83.86
48204;BME280;33994;50.998;5.864;2022-08-19T00:05:43;100828.34;;;19.24;84.15
48204;BME280;33994;50.998;5.864;2022-08-19T00:08:29;100833.88;;;19.19;84.43
48204;BME280;33994;50.998;5.864;2022-08-19T00:11:15;100837.53;;;19.17;84.55
48204;BME280;33994;50.998;5.864;2022-08-19T00:14:00;100835.72;;;19.17;84.73
48204;BME280;33994;50.998;5.864;2022-08-19T00:16:46;100828.97;;;19.12;84.98
48204;BME280;33994;50.998;5.864;2022-08-19T00:19:32;100827.94;;;19.14;84.97
48204;BME280;33994;50.998;5.864;2022-08-19T00:22:17;100822.81;;;19.11;84.91
48204;BME280;33994;50.998;5.864;2022-08-19T00:25:05;100829.09;;;19.09;85.10
48204;BME280;33994;50.998;5.864;2022-08-19T00:27:50;100834.56;;;19.06;85.20
48204;BME280;33994;50.998;5.864;2022-08-19T00:30:35;100835.09;;;18.95;85.42
48204;BME280;33994;50.998;5.864;2022-08-19T00:33:21;100829.16;;;18.90;85.62
48204;BME280;33994;50.998;5.864;2022-08-19T00:36:07;100824.88;;;18.87;85.84
48204;BME280;33994;50.998;5.864;2022-08-19T00:38:53;100824.25;;;18.82;86.43
48204;BME280;33994;50.998;5.864;2022-08-19T00:41:39;100818.88;;;18.84;85.91
48204;BME280;33994;50.998;5.864;2022-08-19T00:44:27;100812.31;;;18.74;86.20
48204;BME280;33994;50.998;5.864;2022-08-19T00:47:13;100813.31;;;18.71;86.33
48204;BME280;33994;50.998;5.864;2022-08-19T00:49:59;100824.06;;;18.68;86.72
48204;BME280;33994;50.998;5.864;2022-08-19T00:52:49;100823.19;;;18.67;86.81
48204;BME280;33994;50.998;5.864;2022-08-19T00:55:35;100829.34;;;18.68;86.68
48204;BME280;33994;50.998;5.864;2022-08-19T00:58:22;100821.34;;;18.69;86.57
48204;BME280;33994;50.998;5.864;2022-08-19T01:01:09;100815.13;;;18.70;86.38
48204;BME280;33994;50.998;5.864;2022-08-19T01:03:55;100816.06;;;18.69;86.40
48204;BME280;33994;50.998;5.864;2022-08-19T01:06:40;100811.63;;;18.70;86.34
48204;BME280;33994;50.998;5.864;2022-08-19T01:09:26;100824.00;;;18.69;86.19
48204;BME280;33994;50.998;5.864;2022-08-19T01:12:11;100828.66;;;18.64;86.37
48204;BME280;33994;50.998;5.864;2022-08-19T01:14:58;100834.97;;;18.62;86.46
48204;BME280;33994;50.998;5.864;2022-08-19T01:17:45;100836.06;;;18.56;86.74
48204;BME280;33994;50.998;5.864;2022-08-19T01:20:30;100829.66;;;18.43;87.32
48204;BME280;33994;50.998;5.864;2022-08-19T01:23:17;100845.56;;;18.43;87.71
48204;BME280;33994;50.998;5.864;2022-08-19T01:26:02;100837.88;;;18.37;87.84
48204;BME280;33994;50.998;5.864;2022-08-19T01:28:50;100848.47;;;18.37;87.58
48204;BME280;33994;50.998;5.864;2022-08-19T01:31:36;100836.66;;;18.25;87.93
48204;BME280;33994;50.998;5.864;2022-08-19T01:34:23;100837.75;;;18.21;88.06
48204;BME280;33994;50.998;5.864;2022-08-19T01:37:11;100840.41;;;18.21;88.10
48204;BME280;33994;50.998;5.864;2022-08-19T01:39:57;100845.09;;;18.14;88.58
48204;BME280;33994;50.998;5.864;2022-08-19T01:42:42;100850.47;;;18.13;88.46
48204;BME280;33994;50.998;5.864;2022-08-19T01:45:30;100857.63;;;18.11;88.50
48204;BME280;33994;50.998;5.864;2022-08-19T01:48:16;100852.28;;;18.12;88.53
48204;BME280;33994;50.998;5.864;2022-08-19T01:51:01;100854.84;;;18.14;88.37
48204;BME280;33994;50.998;5.864;2022-08-19T01:53:48;100858.41;;;18.13;88.29
48204;BME280;33994;50.998;5.864;2022-08-19T01:56:34;100858.41;;;18.13;88.13
48204;BME280;33994;50.998;5.864;2022-08-19T01:59:21;100858.41;;;18.13;88.21
48204;BME280;33994;50.998;5.864;2022-08-19T02:02:08;100857.56;;;18.12;88.19
48204;BME280;33994;50.998;5.864;2022-08-19T02:04:53;100851.41;;;18.12;88.02
48204;BME280;33994;50.998;5.864;2022-08-19T02:07:40;100847.88;;;18.11;88.22
48204;BME280;33994;50.998;5.864;2022-08-19T02:10:26;100852.69;;;18.03;88.45
48204;BME280;33994;50.998;5.864;2022-08-19T02:13:12;100847.69;;;17.97;88.74
48204;BME280;33994;50.998;5.864;2022-08-19T02:15:58;100855.66;;;17.95;89.48
48204;BME280;33994;50.998;5.864;2022-08-19T02:18:43;100852.16;;;17.95;88.93
48204;BME280;33994;50.998;5.864;2022-08-19T02:21:29;100857.59;;;17.92;89.20
48204;BME280;33994;50.998;5.864;2022-08-19T02:24:15;100859.38;;;17.91;89.30
48204;BME280;33994;50.998;5.864;2022-08-19T02:27:00;100862.84;;;17.93;89.38
48204;BME280;33994;50.998;5.864;2022-08-19T02:29:47;100861.03;;;17.94;89.33
48204;BME280;33994;50.998;5.864;2022-08-19T02:32:32;100864.63;;;17.93;89.24
48204;BME280;33994;50.998;5.864;2022-08-19T02:35:18;100871.69;;;17.92;89.50
48204;BME280;33994;50.998;5.864;2022-08-19T02:38:03;100863.81;;;17.91;89.25
48204;BME280;33994;50.998;5.864;2022-08-19T02:41:12;100859.50;;;17.88;89.61
48204;BME280;33994;50.998;5.864;2022-08-19T02:43:59;100858.78;;;17.85;89.77
48204;BME280;33994;50.998;5.864;2022-08-19T02:46:47;100871.44;;;17.78;90.09
48204;BME280;33994;50.998;5.864;2022-08-19T02:49:33;100869.00;;;17.73;90.41
48204;BME280;33994;50.998;5.864;2022-08-19T02:52:19;100863.84;;;17.70;90.64
48204;BME280;33994;50.998;5.864;2022-08-19T02:55:07;100860.38;;;17.68;91.01
48204;BME280;33994;50.998;5.864;2022-08-19T02:57:53;100866.38;;;17.73;91.03
48204;BME280;33994;50.998;5.864;2022-08-19T03:00:47;100856.78;;;17.69;91.55
48204;BME280;33994;50.998;5.864;2022-08-19T03:03:33;100862.06;;;17.69;91.76
48204;BME280;33994;50.998;5.864;2022-08-19T03:06:19;100860.28;;;17.71;91.71
48204;BME280;33994;50.998;5.864;2022-08-19T03:09:04;100859.34;;;17.72;92.04
48204;BME280;33994;50.998;5.864;2022-08-19T03:11:50;100871.66;;;17.73;92.09
48204;BME280;33994;50.998;5.864;2022-08-19T03:14:36;100869.66;;;17.79;92.36
48204;BME280;33994;50.998;5.864;2022-08-19T03:17:21;100867.06;;;17.77;92.49
48204;BME280;33994;50.998;5.864;2022-08-19T03:20:07;100871.38;;;17.80;92.66
48204;BME280;33994;50.998;5.864;2022-08-19T03:22:59;100874.81;;;17.82;93.01
48204;BME280;33994;50.998;5.864;2022-08-19T03:25:47;100874.66;;;17.85;92.70
48204;BME280;33994;50.998;5.864;2022-08-19T03:28:33;100874.66;;;17.85;92.48
48204;BME280;33994;50.998;5.864;2022-08-19T03:31:21;100879.81;;;17.88;92.85
48204;BME280;33994;50.998;5.864;2022-08-19T03:34:06;100870.81;;;17.92;92.57
48204;BME280;33994;50.998;5.864;2022-08-19T03:36:53;100873.28;;;17.96;92.68
48204;BME280;33994;50.998;5.864;2022-08-19T03:39:40;100881.00;;;18.01;92.54
48204;BME280;33994;50.998;5.864;2022-08-19T03:42:26;100879.13;;;18.03;92.76
48204;BME280;33994;50.998;5.864;2022-08-19T03:45:11;100883.53;;;18.04;92.44
48204;BME280;33994;50.998;5.864;2022-08-19T03:47:57;100878.16;;;18.06;92.42
48204;BME280;33994;50.998;5.864;2022-08-19T03:50:42;100872.78;;;18.07;92.21
48204;BME280;33994;50.998;5.864;2022-08-19T03:53:29;100885.97;;;18.09;92.18
48204;BME280;33994;50.998;5.864;2022-08-19T03:56:15;100880.66;;;18.09;92.25
48204;BME280;33994;50.998;5.864;2022-08-19T03:59:00;100882.44;;;18.08;92.18
48204;BME280;33994;50.998;5.864;2022-08-19T04:01:46;100881.78;;;18.03;91.89
48204;BME280;33994;50.998;5.864;2022-08-19T04:04:32;100879.13;;;18.03;91.89
48204;BME280;33994;50.998;5.864;2022-08-19T04:07:17;100878.28;;;18.03;91.67
48204;BME280;33994;50.998;5.864;2022-08-19T04:10:05;100881.00;;;18.01;91.71
48204;BME280;33994;50.998;5.864;2022-08-19T04:12:50;100894.25;;;18.01;91.43
48204;BME280;33994;50.998;5.864;2022-08-19T04:15:44;100884.56;;;18.00;91.25
48204;BME280;33994;50.998;5.864;2022-08-19T04:18:31;100885.50;;;17.99;91.14
48204;BME280;33994;50.998;5.864;2022-08-19T04:21:23;100889.28;;;17.93;91.22
48204;BME280;33994;50.998;5.864;2022-08-19T04:24:09;100886.69;;;17.92;91.11
48204;BME280;33994;50.998;5.864;2022-08-19T04:26:54;100884.13;;;17.90;91.32
48204;BME280;33994;50.998;5.864;2022-08-19T04:29:39;100877.25;;;17.86;91.47
48204;BME280;33994;50.998;5.864;2022-08-19T04:32:25;100877.31;;;17.85;91.43
48204;BME280;33994;50.998;5.864;2022-08-19T04:35:10;100887.13;;;17.83;91.61
48204;BME280;33994;50.998;5.864;2022-08-19T04:37:56;100873.88;;;17.83;91.83
48204;BME280;33994;50.998;5.864;2022-08-19T04:40:44;100871.25;;;17.83;92.01
48204;BME280;33994;50.998;5.864;2022-08-19T04:43:47;100880.13;;;17.82;92.36
48204;BME280;33994;50.998;5.864;2022-08-19T04:46:34;100887.88;;;17.85;92.19
48204;BME280;33994;50.998;5.864;2022-08-19T04:49:21;100894.06;;;17.85;92.48
48204;BME280;33994;50.998;5.864;2022-08-19T04:52:07;100892.41;;;17.83;92.31
48204;BME280;33994;50.998;5.864;2022-08-19T04:54:53;100903.75;;;17.85;92.53
48204;BME280;33994;50.998;5.864;2022-08-19T04:57:39;100901.06;;;17.86;92.44
48204;BME280;33994;50.998;5.864;2022-08-19T05:00:24;100903.72;;;17.86;92.47
48204;BME280;33994;50.998;5.864;2022-08-19T05:03:09;100895.97;;;17.82;92.35
48204;BME280;33994;50.998;5.864;2022-08-19T05:05:54;100908.53;;;17.77;92.49
48204;BME280;33994;50.998;5.864;2022-08-19T05:08:41;100904.25;;;17.74;92.95
48204;BME280;33994;50.998;5.864;2022-08-19T05:11:31;100912.25;;;17.72;92.96
48204;BME280;33994;50.998;5.864;2022-08-19T05:14:16;100903.53;;;17.70;93.05
48204;BME280;33994;50.998;5.864;2022-08-19T05:17:02;100911.47;;;17.70;93.17
48204;BME280;33994;50.998;5.864;2022-08-19T05:19:47;100912.31;;;17.71;93.47
48204;BME280;33994;50.998;5.864;2022-08-19T05:22:50;100914.09;;;17.70;93.40
48204;BME280;33994;50.998;5.864;2022-08-19T05:25:39;100913.28;;;17.68;93.47
48204;BME280;33994;50.998;5.864;2022-08-19T05:28:25;100913.22;;;17.70;93.35
48204;BME280;33994;50.998;5.864;2022-08-19T05:31:11;100909.66;;;17.71;93.39
48204;BME280;33994;50.998;5.864;2022-08-19T05:33:57;100913.19;;;17.71;93.40
48204;BME280;33994;50.998;5.864;2022-08-19T05:36:44;100913.81;;;17.77;93.56
48204;BME280;33994;50.998;5.864;2022-08-19T05:39:30;100907.56;;;17.79;93.52
48204;BME280;33994;50.998;5.864;2022-08-19T05:42:16;100911.56;;;17.88;93.07
48204;BME280;33994;50.998;5.864;2022-08-19T05:45:04;100915.66;;;17.95;92.70
48204;BME280;33994;50.998;5.864;2022-08-19T05:47:50;100926.91;;;18.00;91.93
48204;BME280;33994;50.998;5.864;2022-08-19T05:50:36;100921.34;;;18.06;91.35
48204;BME280;33994;50.998;5.864;2022-08-19T05:53:21;100930.00;;;18.10;90.87
48204;BME280;33994;50.998;5.864;2022-08-19T05:56:07;100937.94;;;18.10;90.09
48204;BME280;33994;50.998;5.864;2022-08-19T05:58:53;100932.56;;;18.11;89.83
48204;BME280;33994;50.998;5.864;2022-08-19T06:01:43;100928.00;;;18.15;89.36
48204;BME280;33994;50.998;5.864;2022-08-19T06:04:29;100930.13;;;18.27;88.97
48204;BME280;33994;50.998;5.864;2022-08-19T06:07:14;100928.84;;;18.36;88.23
48204;BME280;33994;50.998;5.864;2022-08-19T06:10:00;100937.28;;;18.44;87.55
48204;BME280;33994;50.998;5.864;2022-08-19T06:12:46;100936.84;;;18.53;86.98
48204;BME280;33994;50.998;5.864;2022-08-19T06:15:31;100937.06;;;18.69;86.46
48204;BME280;33994;50.998;5.864;2022-08-19T06:18:16;100925.03;;;18.81;85.48
48204;BME280;33994;50.998;5.864;2022-08-19T06:21:03;100926.00;;;18.97;84.30
48204;BME280;33994;50.998;5.864;2022-08-19T06:23:49;100930.84;;;19.06;83.01
48204;BME280;33994;50.998;5.864;2022-08-19T06:26:36;100926.81;;;19.16;82.25
48204;BME280;33994;50.998;5.864;2022-08-19T06:29:24;100941.16;;;19.30;81.56
48204;BME280;33994;50.998;5.864;2022-08-19T06:32:11;100939.53;;;19.44;81.42
48204;BME280;33994;50.998;5.864;2022-08-19T06:34:57;100943.75;;;19.49;81.15
48204;BME280;33994;50.998;5.864;2022-08-19T06:37:42;100950.44;;;19.57;80.86
48204;BME280;33994;50.998;5.864;2022-08-19T06:40:28;100947.03;;;19.73;80.25
48204;BME280;33994;50.998;5.864;2022-08-19T06:43:13;100944.50;;;19.87;79.45
48204;BME280;33994;50.998;5.864;2022-08-19T06:46:00;100939.41;;;20.00;78.89
48204;BME280;33994;50.998;5.864;2022-08-19T06:48:46;100935.56;;;20.05;78.33
48204;BME280;33994;50.998;5.864;2022-08-19T06:51:32;100935.50;;;20.07;77.89
48204;BME280;33994;50.998;5.864;2022-08-19T06:54:18;100937.34;;;20.22;77.57
48204;BME280;33994;50.998;5.864;2022-08-19T06:57:04;100941.41;;;20.29;77.26
48204;BME280;33994;50.998;5.864;2022-08-19T06:59:51;100957.34;;;20.29;76.97
48204;BME280;33994;50.998;5.864;2022-08-19T07:02:36;100956.94;;;20.37;76.87
48204;BME280;33994;50.998;5.864;2022-08-19T07:05:22;100964.56;;;20.43;76.49
48204;BME280;33994;50.998;5.864;2022-08-19T07:08:07;100959.97;;;20.47;76.32
48204;BME280;33994;50.998;5.864;2022-08-19T07:10:53;100951.41;;;20.57;76.42
48204;BME280;33994;50.998;5.864;2022-08-19T07:13:40;100957.25;;;20.64;75.88
48204;BME280;33994;50.998;5.864;2022-08-19T07:16:28;100960.13;;;20.59;76.14
48204;BME280;33994;50.998;5.864;2022-08-19T07:19:13;100961.19;;;20.57;75.86
48204;BME280;33994;50.998;5.864;2022-08-19T07:22:02;100961.50;;;20.51;75.69
48204;BME280;33994;50.998;5.864;2022-08-19T07:24:47;100957.19;;;20.48;75.67
48204;BME280;33994;50.998;5.864;2022-08-19T07:27:33;100965.44;;;20.44;75.81
48204;BME280;33994;50.998;5.864;2022-08-19T07:30:19;100959.34;;;20.41;75.93
48204;BME280;33994;50.998;5.864;2022-08-19T07:33:06;100959.88;;;20.31;75.80
48204;BME280;33994;50.998;5.864;2022-08-19T07:35:51;100963.50;;;20.30;76.28
48204;BME280;33994;50.998;5.864;2022-08-19T07:38:37;100969.72;;;20.29;76.38
48204;BME280;33994;50.998;5.864;2022-08-19T07:41:25;100971.78;;;20.24;76.32
48204;BME280;33994;50.998;5.864;2022-08-19T07:44:11;100974.44;;;20.24;76.58
48204;BME280;33994;50.998;5.864;2022-08-19T07:46:57;100971.31;;;20.33;76.54
48204;BME280;33994;50.998;5.864;2022-08-19T07:49:43;100973.66;;;20.39;76.14
48204;BME280;33994;50.998;5.864;2022-08-19T07:52:29;100984.81;;;20.46;75.96
48204;BME280;33994;50.998;5.864;2022-08-19T07:55:18;100988.16;;;20.49;75.53
48204;BME280;33994;50.998;5.864;2022-08-19T07:58:03;100991.50;;;20.53;75.40
48204;BME280;33994;50.998;5.864;2022-08-19T08:00:50;100988.44;;;20.60;75.26
48204;BME280;33994;50.998;5.864;2022-08-19T08:03:36;100993.50;;;20.65;74.26
48204;BME280;33994;50.998;5.864;2022-08-19T08:06:39;100985.53;;;20.65;74.34
48204;BME280;33994;50.998;5.864;2022-08-19T08:09:43;100993.69;;;20.78;73.88
48204;BME280;33994;50.998;5.864;2022-08-19T08:12:36;100999.09;;;20.76;73.26
48204;BME280;33994;50.998;5.864;2022-08-19T08:15:24;101000.53;;;20.82;73.55
48204;BME280;33994;50.998;5.864;2022-08-19T08:18:11;101002.88;;;20.88;73.12
48204;BME280;33994;50.998;5.864;2022-08-19T08:20:57;101005.22;;;20.94;72.89
48204;BME280;33994;50.998;5.864;2022-08-19T08:23:42;101002.03;;;21.03;72.73
48204;BME280;33994;50.998;5.864;2022-08-19T08:26:27;100996.19;;;21.12;72.33
48204;BME280;33994;50.998;5.864;2022-08-19T08:29:14;101005.97;;;21.28;71.89
48204;BME280;33994;50.998;5.864;2022-08-19T08:31:59;100994.16;;;21.33;71.40
48204;BME280;33994;50.998;5.864;2022-08-19T08:34:45;100999.97;;;21.40;71.04
48204;BME280;33994;50.998;5.864;2022-08-19T08:37:30;100997.91;;;21.45;70.67
48204;BME280;33994;50.998;5.864;2022-08-19T08:40:29;101000.88;;;21.55;70.45
48204;BME280;33994;50.998;5.864;2022-08-19T08:43:27;100998.72;;;21.61;70.43
48204;BME280;33994;50.998;5.864;2022-08-19T08:46:22;101002.16;;;21.63;69.59
48204;BME280;33994;50.998;5.864;2022-08-19T08:49:18;101000.94;;;21.69;69.00
48204;BME280;33994;50.998;5.864;2022-08-19T08:52:29;101007.63;;;21.76;68.39
48204;BME280;33994;50.998;5.864;2022-08-19T08:55:18;101002.97;;;21.80;68.83
48204;BME280;33994;50.998;5.864;2022-08-19T08:58:09;101002.63;;;21.86;68.73
48204;BME280;33994;50.998;5.864;2022-08-19T09:00:57;101009.47;;;21.90;68.36
48204;BME280;33994;50.998;5.864;2022-08-19T09:03:43;101009.28;;;21.93;68.20
48204;BME280;33994;50.998;5.864;2022-08-19T09:06:40;101015.22;;;21.98;67.72
48204;BME280;33994;50.998;5.864;2022-08-19T09:09:35;101012.19;;;22.04;67.52
48204;BME280;33994;50.998;5.864;2022-08-19T09:15:24;101008.31;;;22.10;66.83
48204;BME280;33994;50.998;5.864;2022-08-19T09:18:11;101006.13;;;22.17;66.91
48204;BME280;33994;50.998;5.864;2022-08-19T09:20:56;101006.88;;;22.19;66.69
48204;BME280;33994;50.998;5.864;2022-08-19T09:23:41;101003.66;;;22.14;66.69
48204;BME280;33994;50.998;5.864;2022-08-19T09:26:27;101000.22;;;22.11;66.63
48204;BME280;33994;50.998;5.864;2022-08-19T09:29:13;101010.47;;;22.03;67.41
48204;BME280;33994;50.998;5.864;2022-08-19T09:31:58;101008.19;;;21.97;67.59
48204;BME280;33994;50.998;5.864;2022-08-19T09:34:44;100996.59;;;21.98;67.53
48204;BME280;33994;50.998;5.864;2022-08-19T09:37:29;101006.84;;;22.04;67.48
48204;BME280;33994;50.998;5.864;2022-08-19T09:40:15;101009.63;;;22.03;67.56
48204;BME280;33994;50.998;5.864;2022-08-19T09:43:00;101007.25;;;21.98;67.04
48204;BME280;33994;50.998;5.864;2022-08-19T09:45:46;101009.06;;;21.98;67.30
48204;BME280;33994;50.998;5.864;2022-08-19T09:48:32;101002.88;;;21.97;67.13
48204;BME280;33994;50.998;5.864;2022-08-19T09:51:21;101001.91;;;21.98;67.33
48204;BME280;33994;50.998;5.864;2022-08-19T09:54:07;100997.25;;;22.02;66.52
48204;BME280;33994;50.998;5.864;2022-08-19T09:56:53;100999.66;;;22.06;66.06
48204;BME280;33994;50.998;5.864;2022-08-19T09:59:39;101007.47;;;22.09;66.07
48204;BME280;33994;50.998;5.864;2022-08-19T10:02:25;100992.72;;;22.18;65.64
48204;BME280;33994;50.998;5.864;2022-08-19T10:05:10;101001.75;;;22.30;65.74
48204;BME280;33994;50.998;5.864;2022-08-19T10:08:13;101002.16;;;22.38;65.41
48204;BME280;33994;50.998;5.864;2022-08-19T10:11:00;100990.34;;;22.42;65.65
48204;BME280;33994;50.998;5.864;2022-08-19T10:13:45;100994.53;;;22.46;65.80
48204;BME280;33994;50.998;5.864;2022-08-19T10:16:31;100999.66;;;22.49;65.76
48204;BME280;33994;50.998;5.864;2022-08-19T10:19:17;100998.94;;;22.47;65.75
48204;BME280;33994;50.998;5.864;2022-08-19T10:22:04;100995.41;;;22.47;64.69
48204;BME280;33994;50.998;5.864;2022-08-19T10:24:50;100990.94;;;22.47;64.98
48204;BME280;33994;50.998;5.864;2022-08-19T10:27:36;100988.28;;;22.47;65.25
48204;BME280;33994;50.998;5.864;2022-08-19T10:30:21;100994.94;;;22.54;65.00
48204;BME280;33994;50.998;5.864;2022-08-19T10:33:07;100989.19;;;22.60;64.08
48204;BME280;33994;50.998;5.864;2022-08-19T10:36:10;100986.34;;;22.64;63.06
48204;BME280;33994;50.998;5.864;2022-08-19T10:38:58;100978.53;;;22.60;63.33
48204;BME280;33994;50.998;5.864;2022-08-19T10:41:45;100987.00;;;22.53;63.50
48204;BME280;33994;50.998;5.864;2022-08-19T10:44:31;100977.97;;;22.55;63.38
48204;BME280;33994;50.998;5.864;2022-08-19T10:47:17;100975.13;;;22.58;63.21
48204;BME280;33994;50.998;5.864;2022-08-19T10:50:03;100978.72;;;22.57;63.70
48204;BME280;33994;50.998;5.864;2022-08-19T10:53:08;100981.38;;;22.57;63.56
48204;BME280;33994;50.998;5.864;2022-08-19T10:55:53;100971.59;;;22.58;63.29
48204;BME280;33994;50.998;5.864;2022-08-19T10:58:58;100972.25;;;22.62;63.08
48204;BME280;33994;50.998;5.864;2022-08-19T11:01:44;100978.34;;;22.64;61.71
48204;BME280;33994;50.998;5.864;2022-08-19T11:04:31;100974.72;;;22.65;61.40
48204;BME280;33994;50.998;5.864;2022-08-19T11:07:17;100976.44;;;22.66;60.80
48204;BME280;33994;50.998;5.864;2022-08-19T11:10:03;100974.69;;;22.66;59.90
48204;BME280;33994;50.998;5.864;2022-08-19T11:12:49;100973.59;;;22.69;59.31
48204;BME280;33994;50.998;5.864;2022-08-19T11:15:36;100957.53;;;22.70;59.52
48204;BME280;33994;50.998;5.864;2022-08-19T11:18:22;100962.56;;;22.75;59.92
48204;BME280;33994;50.998;5.864;2022-08-19T11:21:14;100966.44;;;22.83;59.56
48204;BME280;33994;50.998;5.864;2022-08-19T11:24:03;100962.75;;;22.86;59.31
48204;BME280;33994;50.998;5.864;2022-08-19T11:26:52;100956.44;;;22.87;59.58
48204;BME280;33994;50.998;5.864;2022-08-19T11:29:40;100962.44;;;22.91;59.36
48204;BME280;33994;50.998;5.864;2022-08-19T11:32:26;100958.72;;;22.93;59.44
48204;BME280;33994;50.998;5.864;2022-08-19T11:35:11;100946.13;;;22.95;59.20
48204;BME280;33994;50.998;5.864;2022-08-19T11:37:56;100944.03;;;23.00;59.00
48204;BME280;33994;50.998;5.864;2022-08-19T11:40:54;100944.78;;;23.02;58.13
48204;BME280;33994;50.998;5.864;2022-08-19T11:43:39;100946.47;;;23.03;58.23
48204;BME280;33994;50.998;5.864;2022-08-19T11:46:26;100933.81;;;23.07;58.57
48204;BME280;33994;50.998;5.864;2022-08-19T11:49:15;100944.75;;;23.17;58.38
48204;BME280;33994;50.998;5.864;2022-08-19T11:52:03;100946.44;;;23.18;58.21
48204;BME280;33994;50.998;5.864;2022-08-19T11:54:48;100947.22;;;23.20;57.49
48204;BME280;33994;50.998;5.864;2022-08-19T11:57:33;100948.91;;;23.21;56.60
48204;BME280;33994;50.998;5.864;2022-08-19T12:00:19;100938.06;;;23.24;55.95
48204;BME280;33994;50.998;5.864;2022-08-19T12:03:04;100935.25;;;23.25;55.68
48204;BME280;33994;50.998;5.864;2022-08-19T12:05:50;100943.69;;;23.19;55.05
48204;BME280;33994;50.998;5.864;2022-08-19T12:08:35;100949.13;;;23.18;54.93
48204;BME280;33994;50.998;5.864;2022-08-19T12:11:21;100947.09;;;23.21;54.96
48204;BME280;33994;50.998;5.864;2022-08-19T12:14:10;100924.91;;;23.21;55.25
48204;BME280;33994;50.998;5.864;2022-08-19T12:16:58;100925.63;;;23.23;55.52
48204;BME280;33994;50.998;5.864;2022-08-19T12:19:43;100929.84;;;23.27;55.56
48204;BME280;33994;50.998;5.864;2022-08-19T12:22:29;100935.59;;;23.33;55.34
48204;BME280;33994;50.998;5.864;2022-08-19T12:25:14;100930.28;;;23.33;55.35
48204;BME280;33994;50.998;5.864;2022-08-19T12:27:59;100937.63;;;23.30;55.58
48204;BME280;33994;50.998;5.864;2022-08-19T12:30:47;100934.09;;;23.29;55.61
48204;BME280;33994;50.998;5.864;2022-08-19T12:33:32;100932.59;;;23.25;55.81
48204;BME280;33994;50.998;5.864;2022-08-19T12:36:18;100934.31;;;23.26;55.87
48204;BME280;33994;50.998;5.864;2022-08-19T12:39:03;100929.22;;;23.36;56.30
48204;BME280;33994;50.998;5.864;2022-08-19T12:41:49;100927.78;;;23.45;56.25
48204;BME280;33994;50.998;5.864;2022-08-19T12:44:37;100928.03;;;23.54;56.31
48204;BME280;33994;50.998;5.864;2022-08-19T12:47:23;100922.69;;;23.54;56.12
48204;BME280;33994;50.998;5.864;2022-08-19T12:50:10;100923.53;;;23.55;56.04
48204;BME280;33994;50.998;5.864;2022-08-19T12:52:57;100922.25;;;23.61;56.23
48204;BME280;33994;50.998;5.864;2022-08-19T12:55:42;100915.53;;;23.68;56.61
48204;BME280;33994;50.998;5.864;2022-08-19T12:58:29;100916.28;;;23.70;56.54
48204;BME280;33994;50.998;5.864;2022-08-19T13:01:15;100909.88;;;23.72;56.54
48204;BME280;33994;50.998;5.864;2022-08-19T13:04:02;100909.13;;;23.70;56.76
48204;BME280;33994;50.998;5.864;2022-08-19T13:06:47;100899.50;;;23.68;56.94
48204;BME280;33994;50.998;5.864;2022-08-19T13:09:33;100900.28;;;23.70;57.46
48204;BME280;33994;50.998;5.864;2022-08-19T13:12:18;100904.44;;;23.74;57.53
48204;BME280;33994;50.998;5.864;2022-08-19T13:15:05;100914.59;;;23.82;57.66
48204;BME280;33994;50.998;5.864;2022-08-19T13:17:51;100902.09;;;23.82;58.20
48204;BME280;33994;50.998;5.864;2022-08-19T13:20:38;100907.31;;;23.84;57.84
48204;BME280;33994;50.998;5.864;2022-08-19T13:23:25;100909.69;;;23.88;58.03
48204;BME280;33994;50.998;5.864;2022-08-19T13:26:11;100905.84;;;23.92;58.07
48204;BME280;33994;50.998;5.864;2022-08-19T13:28:56;100897.59;;;23.95;57.92
48204;BME280;33994;50.998;5.864;2022-08-19T13:31:59;100893.78;;;23.99;58.18
48204;BME280;33994;50.998;5.864;2022-08-19T13:35:03;100891.94;;;24.00;58.39
48204;BME280;33994;50.998;5.864;2022-08-19T13:37:49;100894.50;;;24.01;58.33
48204;BME280;33994;50.998;5.864;2022-08-19T13:40:35;100893.53;;;24.02;58.37
48204;BME280;33994;50.998;5.864;2022-08-19T13:43:22;100895.16;;;24.05;58.54
48204;BME280;33994;50.998;5.864;2022-08-19T13:46:10;100889.28;;;24.00;58.70
48204;BME280;33994;50.998;5.864;2022-08-19T13:48:57;100893.44;;;23.91;58.58
48204;BME280;33994;50.998;5.864;2022-08-19T14:01:03;100886.72;;;23.86;59.49
48204;BME280;33994;50.998;5.864;2022-08-19T14:03:49;100890.22;;;23.86;60.11
48204;BME280;33994;50.998;5.864;2022-08-19T14:06:34;100886.19;;;23.93;59.75
48204;BME280;33994;50.998;5.864;2022-08-19T14:09:20;100888.94;;;24.04;59.92
48204;BME280;33994;50.998;5.864;2022-08-19T14:12:06;100884.91;;;24.12;60.06
48204;BME280;33994;50.998;5.864;2022-08-19T14:14:51;100886.19;;;24.19;60.07
48204;BME280;33994;50.998;5.864;2022-08-19T14:17:39;100887.06;;;24.19;60.21
48204;BME280;33994;50.998;5.864;2022-08-19T14:20:25;100887.25;;;24.16;60.23
48204;BME280;33994;50.998;5.864;2022-08-19T14:23:10;100899.22;;;24.11;60.46
48204;BME280;33994;50.998;5.864;2022-08-19T14:26:13;100901.25;;;24.07;60.66
48204;BME280;33994;50.998;5.864;2022-08-19T14:28:58;100885.53;;;24.02;60.88
48204;BME280;33994;50.998;5.864;2022-08-19T14:31:45;100879.78;;;23.96;61.24
48204;BME280;33994;50.998;5.864;2022-08-19T14:34:30;100880.00;;;23.93;61.63
48204;BME280;33994;50.998;5.864;2022-08-19T14:37:17;100880.84;;;23.93;61.56
48204;BME280;33994;50.998;5.864;2022-08-19T14:40:03;100870.88;;;23.95;61.99
48204;BME280;33994;50.998;5.864;2022-08-19T14:42:49;100879.53;;;23.99;61.98
48204;BME280;33994;50.998;5.864;2022-08-19T14:45:36;100881.28;;;24.00;61.83